sensor_id;sensor_type;location;lat;lon;timestamp;temperature;humidity
40291;DHT22;26000;48.304;13.626;2022-07-21T00:01:33;21.50;99.90
40291;DHT22;26000;48.304;13.626;2022-07-21T00:03:59;21.40;99.90
40291;DHT22;26000;48.304;13.626;2022-07-21T00:06:25;21.20;99.90
40291;DHT22;26000;48.304;13.626;2022-07-21T00:08:50;21.20;99.90
40291;DHT22;26000;48.304;13.626;2022-07-21T00:11:16;21.20;99.90
40291;DHT22;26000;48.304;13.626;2022-07-21T00:13:41;21.30;99.90
40291;DHT22;26000;48.304;13.626;2022-07-21T00:16:07;21.30;99.90
40291;DHT22;26000;48.304;13.626;2022-07-21T00:18:33;21.30;99.90
40291;DHT22;26000;48.304;13.626;2022-07-21T00:20:59;21.40;99.90
40291;DHT22;26000;48.304;13.626;2022-07-21T00:23:26;21.50;99.90
40291;DHT22;26000;48.304;13.626;2022-07-21T00:25:52;21.50;99.90
40291;DHT22;26000;48.304;13.626;2022-07-21T00:28:19;21.50;99.90
40291;DHT22;26000;48.304;13.626;2022-07-21T00:30:45;21.50;99.90
40291;DHT22;26000;48.304;13.626;2022-07-21T00:33:11;21.60;99.90
40291;DHT22;26000;48.304;13.626;2022-07-21T00:35:37;21.60;99.90
40291;DHT22;26000;48.304;13.626;2022-07-21T00:38:03;21.60;99.90
40291;DHT22;26000;48.304;13.626;2022-07-21T00:40:29;21.50;99.90
40291;DHT22;26000;48.304;13.626;2022-07-21T00:42:55;21.60;99.90
40291;DHT22;26000;48.304;13.626;2022-07-21T00:45:21;21.50;99.90
40291;DHT22;26000;48.304;13.626;2022-07-21T00:47:47;21.50;99.90
40291;DHT22;26000;48.304;13.626;2022-07-21T00:50:16;21.50;99.90
40291;DHT22;26000;48.304;13.626;2022-07-21T00:52:43;21.40;99.90
40291;DHT22;26000;48.304;13.626;2022-07-21T00:55:12;21.30;99.90
40291;DHT22;26000;48.304;13.626;2022-07-21T00:57:38;21.40;99.90
40291;DHT22;26000;48.304;13.626;2022-07-21T01:00:07;21.30;99.90
40291;DHT22;26000;48.304;13.626;2022-07-21T01:02:33;21.30;99.90
40291;DHT22;26000;48.304;13.626;2022-07-21T01:05:04;21.30;99.90
40291;DHT22;26000;48.304;13.626;2022-07-21T01:07:30;21.30;99.90
40291;DHT22;26000;48.304;13.626;2022-07-21T01:09:56;21.30;99.90
40291;DHT22;26000;48.304;13.626;2022-07-21T01:12:22;21.30;99.90
40291;DHT22;26000;48.304;13.626;2022-07-21T01:14:48;21.30;99.90
40291;DHT22;26000;48.304;13.626;2022-07-21T01:17:13;21.30;99.90
40291;DHT22;26000;48.304;13.626;2022-07-21T01:19:40;21.30;99.90
40291;DHT22;26000;48.304;13.626;2022-07-21T01:22:06;21.30;99.90
40291;DHT22;26000;48.304;13.626;2022-07-21T01:24:32;21.30;99.90
40291;DHT22;26000;48.304;13.626;2022-07-21T01:26:58;21.20;99.90
40291;DHT22;26000;48.304;13.626;2022-07-21T01:29:23;21.30;99.90
40291;DHT22;26000;48.304;13.626;2022-07-21T01:31:50;21.30;99.90
40291;DHT22;26000;48.304;13.626;2022-07-21T01:34:16;21.10;99.90
40291;DHT22;26000;48.304;13.626;2022-07-21T01:36:43;21.10;99.90
40291;DHT22;26000;48.304;13.626;2022-07-21T01:39:09;21.10;99.90
40291;DHT22;26000;48.304;13.626;2022-07-21T01:41:54;21.10;99.90
40291;DHT22;26000;48.304;13.626;2022-07-21T01:44:20;21.00;99.90
40291;DHT22;26000;48.304;13.626;2022-07-21T01:46:47;21.00;99.90
40291;DHT22;26000;48.304;13.626;2022-07-21T01:49:15;21.00;99.90
40291;DHT22;26000;48.304;13.626;2022-07-21T01:51:41;21.00;99.90
40291;DHT22;26000;48.304;13.626;2022-07-21T01:54:08;21.00;99.90
40291;DHT22;26000;48.304;13.626;2022-07-21T01:56:35;20.90;99.90
40291;DHT22;26000;48.304;13.626;2022-07-21T01:59:02;20.90;99.90
40291;DHT22;26000;48.304;13.626;2022-07-21T02:01:29;20.90;99.90
40291;DHT22;26000;48.304;13.626;2022-07-21T02:03:56;21.00;99.90
40291;DHT22;26000;48.304;13.626;2022-07-21T02:06:22;20.90;99.90
40291;DHT22;26000;48.304;13.626;2022-07-21T02:08:48;20.90;99.90
40291;DHT22;26000;48.304;13.626;2022-07-21T02:11:15;20.70;99.90
40291;DHT22;26000;48.304;13.626;2022-07-21T02:13:42;20.70;99.90
40291;DHT22;26000;48.304;13.626;2022-07-21T02:16:08;20.60;99.90
40291;DHT22;26000;48.304;13.626;2022-07-21T02:18:34;20.60;99.90
40291;DHT22;26000;48.304;13.626;2022-07-21T02:21:00;20.60;99.90
40291;DHT22;26000;48.304;13.626;2022-07-21T02:23:26;20.50;99.90
40291;DHT22;26000;48.304;13.626;2022-07-21T02:25:53;20.60;99.90
40291;DHT22;26000;48.304;13.626;2022-07-21T02:28:19;20.70;99.90
40291;DHT22;26000;48.304;13.626;2022-07-21T02:30:45;20.80;99.90
40291;DHT22;26000;48.304;13.626;2022-07-21T02:33:12;20.90;99.90
40291;DHT22;26000;48.304;13.626;2022-07-21T02:35:38;21.00;99.90
40291;DHT22;26000;48.304;13.626;2022-07-21T02:38:04;21.10;99.90
40291;DHT22;26000;48.304;13.626;2022-07-21T02:40:30;21.20;99.90
40291;DHT22;26000;48.304;13.626;2022-07-21T02:42:56;21.30;99.90
40291;DHT22;26000;48.304;13.626;2022-07-21T02:45:22;21.40;99.90
40291;DHT22;26000;48.304;13.626;2022-07-21T02:47:52;21.40;99.90
40291;DHT22;26000;48.304;13.626;2022-07-21T02:50:19;21.50;99.90
40291;DHT22;26000;48.304;13.626;2022-07-21T02:52:45;21.50;99.90
40291;DHT22;26000;48.304;13.626;2022-07-21T02:55:10;21.50;99.90
40291;DHT22;26000;48.304;13.626;2022-07-21T02:57:37;21.50;99.90
40291;DHT22;26000;48.304;13.626;2022-07-21T03:00:05;21.50;99.90
40291;DHT22;26000;48.304;13.626;2022-07-21T03:02:31;21.50;99.90
40291;DHT22;26000;48.304;13.626;2022-07-21T03:04:57;21.50;99.90
40291;DHT22;26000;48.304;13.626;2022-07-21T03:07:23;21.60;99.90
40291;DHT22;26000;48.304;13.626;2022-07-21T03:09:48;21.40;99.90
40291;DHT22;26000;48.304;13.626;2022-07-21T03:12:14;21.30;99.90
40291;DHT22;26000;48.304;13.626;2022-07-21T03:14:40;21.10;99.90
40291;DHT22;26000;48.304;13.626;2022-07-21T03:17:05;21.10;99.90
40291;DHT22;26000;48.304;13.626;2022-07-21T03:19:31;21.10;99.90
40291;DHT22;26000;48.304;13.626;2022-07-21T03:21:56;21.00;99.90
40291;DHT22;26000;48.304;13.626;2022-07-21T03:24:22;21.10;99.90
40291;DHT22;26000;48.304;13.626;2022-07-21T03:26:48;21.10;99.90
40291;DHT22;26000;48.304;13.626;2022-07-21T03:29:13;21.10;99.90
40291;DHT22;26000;48.304;13.626;2022-07-21T03:31:39;21.20;99.90
40291;DHT22;26000;48.304;13.626;2022-07-21T03:34:05;21.10;99.90
40291;DHT22;26000;48.304;13.626;2022-07-21T03:36:30;21.00;99.90
40291;DHT22;26000;48.304;13.626;2022-07-21T03:38:56;21.00;99.90
40291;DHT22;26000;48.304;13.626;2022-07-21T03:41:22;21.00;99.90
40291;DHT22;26000;48.304;13.626;2022-07-21T03:43:47;20.90;99.90
40291;DHT22;26000;48.304;13.626;2022-07-21T03:46:13;20.90;99.90
40291;DHT22;26000;48.304;13.626;2022-07-21T03:48:39;20.90;99.90
40291;DHT22;26000;48.304;13.626;2022-07-21T03:51:05;20.80;99.90
40291;DHT22;26000;48.304;13.626;2022-07-21T03:53:30;20.90;99.90
40291;DHT22;26000;48.304;13.626;2022-07-21T03:55:56;20.90;99.90
40291;DHT22;26000;48.304;13.626;2022-07-21T03:58:22;21.00;99.90
40291;DHT22;26000;48.304;13.626;2022-07-21T04:00:47;21.00;99.90
40291;DHT22;26000;48.304;13.626;2022-07-21T04:03:13;21.00;99.90
40291;DHT22;26000;48.304;13.626;2022-07-21T04:05:40;21.20;99.90
40291;DHT22;26000;48.304;13.626;2022-07-21T04:08:07;21.70;99.90
40291;DHT22;26000;48.304;13.626;2022-07-21T04:10:35;22.30;99.90
40291;DHT22;26000;48.304;13.626;2022-07-21T04:13:03;22.80;99.90
40291;DHT22;26000;48.304;13.626;2022-07-21T04:15:30;23.10;99.90
40291;DHT22;26000;48.304;13.626;2022-07-21T04:17:56;23.50;99.90
40291;DHT22;26000;48.304;13.626;2022-07-21T04:20:22;23.90;99.90
40291;DHT22;26000;48.304;13.626;2022-07-21T04:22:49;24.40;99.20
40291;DHT22;26000;48.304;13.626;2022-07-21T04:25:16;24.80;98.60
40291;DHT22;26000;48.304;13.626;2022-07-21T04:27:43;25.10;98.10
40291;DHT22;26000;48.304;13.626;2022-07-21T04:30:11;25.40;97.80
40291;DHT22;26000;48.304;13.626;2022-07-21T04:32:37;25.60;97.30
40291;DHT22;26000;48.304;13.626;2022-07-21T04:35:04;25.70;97.10
40291;DHT22;26000;48.304;13.626;2022-07-21T04:37:30;25.60;97.00
40291;DHT22;26000;48.304;13.626;2022-07-21T04:39:56;25.70;97.00
40291;DHT22;26000;48.304;13.626;2022-07-21T04:42:22;25.70;97.20
40291;DHT22;26000;48.304;13.626;2022-07-21T04:44:47;25.40;97.50
40291;DHT22;26000;48.304;13.626;2022-07-21T04:47:13;25.20;98.00
40291;DHT22;26000;48.304;13.626;2022-07-21T04:49:39;24.80;98.00
40291;DHT22;26000;48.304;13.626;2022-07-21T04:52:05;24.60;98.10
40291;DHT22;26000;48.304;13.626;2022-07-21T04:54:30;24.50;98.20
40291;DHT22;26000;48.304;13.626;2022-07-21T04:56:56;24.30;98.30
40291;DHT22;26000;48.304;13.626;2022-07-21T04:59:21;24.20;98.60
40291;DHT22;26000;48.304;13.626;2022-07-21T05:01:47;24.30;98.70
40291;DHT22;26000;48.304;13.626;2022-07-21T05:04:13;24.20;98.40
40291;DHT22;26000;48.304;13.626;2022-07-21T05:06:38;24.20;98.70
40291;DHT22;26000;48.304;13.626;2022-07-21T05:09:04;24.20;98.50
40291;DHT22;26000;48.304;13.626;2022-07-21T05:11:30;24.20;98.60
40291;DHT22;26000;48.304;13.626;2022-07-21T05:13:56;24.30;98.70
40291;DHT22;26000;48.304;13.626;2022-07-21T05:16:22;24.30;98.20
40291;DHT22;26000;48.304;13.626;2022-07-21T05:18:48;24.30;98.50
40291;DHT22;26000;48.304;13.626;2022-07-21T05:21:14;24.30;98.80
40291;DHT22;26000;48.304;13.626;2022-07-21T05:23:39;24.30;98.50
40291;DHT22;26000;48.304;13.626;2022-07-21T05:26:05;24.40;98.60
40291;DHT22;26000;48.304;13.626;2022-07-21T05:28:30;24.40;98.50
40291;DHT22;26000;48.304;13.626;2022-07-21T05:30:56;24.40;98.60
40291;DHT22;26000;48.304;13.626;2022-07-21T05:33:22;24.40;98.80
40291;DHT22;26000;48.304;13.626;2022-07-21T05:35:48;24.40;98.90
40291;DHT22;26000;48.304;13.626;2022-07-21T05:38:13;24.50;98.60
40291;DHT22;26000;48.304;13.626;2022-07-21T05:40:39;24.40;98.70
40291;DHT22;26000;48.304;13.626;2022-07-21T05:43:05;24.50;98.80
40291;DHT22;26000;48.304;13.626;2022-07-21T05:45:30;24.60;98.40
40291;DHT22;26000;48.304;13.626;2022-07-21T05:47:56;24.60;98.80
40291;DHT22;26000;48.304;13.626;2022-07-21T05:50:22;24.70;98.30
40291;DHT22;26000;48.304;13.626;2022-07-21T05:52:47;24.80;98.10
40291;DHT22;26000;48.304;13.626;2022-07-21T05:55:13;24.80;98.40
40291;DHT22;26000;48.304;13.626;2022-07-21T05:57:39;25.00;98.30
40291;DHT22;26000;48.304;13.626;2022-07-21T06:00:06;25.00;98.80
40291;DHT22;26000;48.304;13.626;2022-07-21T06:02:31;25.20;98.00
40291;DHT22;26000;48.304;13.626;2022-07-21T06:04:58;25.30;98.40
40291;DHT22;26000;48.304;13.626;2022-07-21T06:07:24;25.50;98.00
40291;DHT22;26000;48.304;13.626;2022-07-21T06:09:50;25.50;98.00
40291;DHT22;26000;48.304;13.626;2022-07-21T06:12:15;25.80;97.40
40291;DHT22;26000;48.304;13.626;2022-07-21T06:14:41;25.90;97.20
40291;DHT22;26000;48.304;13.626;2022-07-21T06:17:06;26.00;97.10
40291;DHT22;26000;48.304;13.626;2022-07-21T06:19:32;26.20;96.90
40291;DHT22;26000;48.304;13.626;2022-07-21T06:21:58;26.30;96.50
40291;DHT22;26000;48.304;13.626;2022-07-21T06:24:25;26.60;96.60
40291;DHT22;26000;48.304;13.626;2022-07-21T06:26:52;27.00;96.20
40291;DHT22;26000;48.304;13.626;2022-07-21T06:29:18;27.20;95.70
40291;DHT22;26000;48.304;13.626;2022-07-21T06:31:43;27.50;95.80
40291;DHT22;26000;48.304;13.626;2022-07-21T06:34:09;27.70;94.70
40291;DHT22;26000;48.304;13.626;2022-07-21T06:36:35;27.90;94.50
40291;DHT22;26000;48.304;13.626;2022-07-21T06:39:01;28.20;94.40
40291;DHT22;26000;48.304;13.626;2022-07-21T06:41:27;28.50;94.40
40291;DHT22;26000;48.304;13.626;2022-07-21T06:43:52;28.70;94.40
40291;DHT22;26000;48.304;13.626;2022-07-21T06:46:18;28.90;93.90
40291;DHT22;26000;48.304;13.626;2022-07-21T06:48:44;29.10;94.10
40291;DHT22;26000;48.304;13.626;2022-07-21T06:51:09;29.40;93.50
40291;DHT22;26000;48.304;13.626;2022-07-21T06:53:35;29.60;93.70
40291;DHT22;26000;48.304;13.626;2022-07-21T06:56:01;29.80;92.60
40291;DHT22;26000;48.304;13.626;2022-07-21T06:58:26;29.90;92.80
40291;DHT22;26000;48.304;13.626;2022-07-21T07:00:53;30.10;92.70
40291;DHT22;26000;48.304;13.626;2022-07-21T07:03:19;30.10;92.20
40291;DHT22;26000;48.304;13.626;2022-07-21T07:05:46;30.30;92.20
40291;DHT22;26000;48.304;13.626;2022-07-21T07:08:13;30.50;91.40
40291;DHT22;26000;48.304;13.626;2022-07-21T07:10:40;30.70;92.00
40291;DHT22;26000;48.304;13.626;2022-07-21T07:13:06;30.90;90.80
40291;DHT22;26000;48.304;13.626;2022-07-21T07:15:32;31.00;90.80
40291;DHT22;26000;48.304;13.626;2022-07-21T07:17:58;31.10;91.30
40291;DHT22;26000;48.304;13.626;2022-07-21T07:20:23;31.20;90.70
40291;DHT22;26000;48.304;13.626;2022-07-21T07:22:49;31.20;90.00
40291;DHT22;26000;48.304;13.626;2022-07-21T07:25:15;31.20;89.80
40291;DHT22;26000;48.304;13.626;2022-07-21T07:27:45;31.30;90.90
40291;DHT22;26000;48.304;13.626;2022-07-21T07:30:11;31.40;90.60
40291;DHT22;26000;48.304;13.626;2022-07-21T07:32:37;31.60;90.30
40291;DHT22;26000;48.304;13.626;2022-07-21T07:35:03;31.80;87.80
40291;DHT22;26000;48.304;13.626;2022-07-21T07:37:29;31.70;89.20
40291;DHT22;26000;48.304;13.626;2022-07-21T07:39:55;31.90;88.20
40291;DHT22;26000;48.304;13.626;2022-07-21T07:42:21;31.90;87.10
40291;DHT22;26000;48.304;13.626;2022-07-21T07:44:48;32.00;86.00
40291;DHT22;26000;48.304;13.626;2022-07-21T07:47:14;31.90;87.50
40291;DHT22;26000;48.304;13.626;2022-07-21T07:49:40;32.10;88.20
40291;DHT22;26000;48.304;13.626;2022-07-21T07:52:06;31.90;86.90
40291;DHT22;26000;48.304;13.626;2022-07-21T07:54:33;32.00;87.60
40291;DHT22;26000;48.304;13.626;2022-07-21T07:56:59;32.10;87.80
40291;DHT22;26000;48.304;13.626;2022-07-21T07:59:26;32.00;84.10
40291;DHT22;26000;48.304;13.626;2022-07-21T08:01:52;32.00;86.70
40291;DHT22;26000;48.304;13.626;2022-07-21T08:04:19;32.20;85.70
40291;DHT22;26000;48.304;13.626;2022-07-21T08:06:45;31.90;86.90
40291;DHT22;26000;48.304;13.626;2022-07-21T08:09:10;31.90;86.50
40291;DHT22;26000;48.304;13.626;2022-07-21T08:11:36;32.20;87.40
40291;DHT22;26000;48.304;13.626;2022-07-21T08:14:02;32.20;87.50
40291;DHT22;26000;48.304;13.626;2022-07-21T08:16:28;32.30;83.70
40291;DHT22;26000;48.304;13.626;2022-07-21T08:18:53;32.40;86.80
40291;DHT22;26000;48.304;13.626;2022-07-21T08:21:19;32.60;84.30
40291;DHT22;26000;48.304;13.626;2022-07-21T08:23:44;32.90;85.90
40291;DHT22;26000;48.304;13.626;2022-07-21T08:26:10;33.10;84.50
40291;DHT22;26000;48.304;13.626;2022-07-21T08:28:36;33.10;84.00
40291;DHT22;26000;48.304;13.626;2022-07-21T08:31:01;33.10;84.00
40291;DHT22;26000;48.304;13.626;2022-07-21T08:33:27;33.10;82.70
40291;DHT22;26000;48.304;13.626;2022-07-21T08:35:53;33.10;82.80
40291;DHT22;26000;48.304;13.626;2022-07-21T08:38:19;32.80;82.50
40291;DHT22;26000;48.304;13.626;2022-07-21T08:40:46;32.90;84.20
40291;DHT22;26000;48.304;13.626;2022-07-21T08:43:12;33.10;83.10
40291;DHT22;26000;48.304;13.626;2022-07-21T08:45:39;33.20;83.40
40291;DHT22;26000;48.304;13.626;2022-07-21T08:48:05;33.10;80.50
40291;DHT22;26000;48.304;13.626;2022-07-21T08:50:33;33.30;84.20
40291;DHT22;26000;48.304;13.626;2022-07-21T08:53:00;33.50;80.20
40291;DHT22;26000;48.304;13.626;2022-07-21T08:55:30;33.50;82.70
40291;DHT22;26000;48.304;13.626;2022-07-21T08:57:57;33.60;83.10
40291;DHT22;26000;48.304;13.626;2022-07-21T09:00:24;33.70;80.30
40291;DHT22;26000;48.304;13.626;2022-07-21T09:06:04;33.70;79.60
40291;DHT22;26000;48.304;13.626;2022-07-21T09:08:34;33.60;81.40
40291;DHT22;26000;48.304;13.626;2022-07-21T09:13:39;33.30;82.20
40291;DHT22;26000;48.304;13.626;2022-07-21T09:16:05;33.10;82.20
40291;DHT22;26000;48.304;13.626;2022-07-21T09:18:31;33.00;84.00
40291;DHT22;26000;48.304;13.626;2022-07-21T09:20:57;33.00;83.10
40291;DHT22;26000;48.304;13.626;2022-07-21T09:23:24;33.10;81.00
40291;DHT22;26000;48.304;13.626;2022-07-21T09:25:55;33.20;82.50
40291;DHT22;26000;48.304;13.626;2022-07-21T09:28:29;33.50;83.00
40291;DHT22;26000;48.304;13.626;2022-07-21T09:30:59;33.50;81.60
40291;DHT22;26000;48.304;13.626;2022-07-21T09:33:35;33.30;81.70
40291;DHT22;26000;48.304;13.626;2022-07-21T09:38:36;32.90;83.40
40291;DHT22;26000;48.304;13.626;2022-07-21T09:43:40;33.10;83.80
40291;DHT22;26000;48.304;13.626;2022-07-21T09:46:16;33.10;80.50
40291;DHT22;26000;48.304;13.626;2022-07-21T09:48:43;33.40;82.50
40291;DHT22;26000;48.304;13.626;2022-07-21T09:51:35;33.40;81.70
40291;DHT22;26000;48.304;13.626;2022-07-21T09:54:04;33.10;83.90
40291;DHT22;26000;48.304;13.626;2022-07-21T09:56:32;32.90;82.50
40291;DHT22;26000;48.304;13.626;2022-07-21T09:59:00;32.80;83.50
40291;DHT22;26000;48.304;13.626;2022-07-21T10:01:27;32.80;85.50
40291;DHT22;26000;48.304;13.626;2022-07-21T10:03:54;32.90;84.60
40291;DHT22;26000;48.304;13.626;2022-07-21T10:06:24;32.90;85.40
40291;DHT22;26000;48.304;13.626;2022-07-21T10:08:51;33.20;83.00
40291;DHT22;26000;48.304;13.626;2022-07-21T10:11:17;33.40;82.50
40291;DHT22;26000;48.304;13.626;2022-07-21T10:13:43;33.60;81.40
40291;DHT22;26000;48.304;13.626;2022-07-21T10:16:10;33.70;81.20
40291;DHT22;26000;48.304;13.626;2022-07-21T10:18:44;33.60;81.80
40291;DHT22;26000;48.304;13.626;2022-07-21T10:23:56;33.30;83.30
40291;DHT22;26000;48.304;13.626;2022-07-21T10:26:22;33.40;83.50
40291;DHT22;26000;48.304;13.626;2022-07-21T10:28:48;33.20;84.20
40291;DHT22;26000;48.304;13.626;2022-07-21T10:31:18;33.20;85.00
40291;DHT22;26000;48.304;13.626;2022-07-21T10:39:13;33.60;84.60
40291;DHT22;26000;48.304;13.626;2022-07-21T10:41:47;33.60;84.50
40291;DHT22;26000;48.304;13.626;2022-07-21T10:47:02;33.20;83.40
40291;DHT22;26000;48.304;13.626;2022-07-21T10:49:43;33.20;85.30
40291;DHT22;26000;48.304;13.626;2022-07-21T10:57:45;33.50;85.10
40291;DHT22;26000;48.304;13.626;2022-07-21T11:00:28;33.30;84.20
40291;DHT22;26000;48.304;13.626;2022-07-21T11:03:01;32.90;85.30
40291;DHT22;26000;48.304;13.626;2022-07-21T11:05:29;32.80;84.50
40291;DHT22;26000;48.304;13.626;2022-07-21T11:08:12;32.60;85.10
40291;DHT22;26000;48.304;13.626;2022-07-21T11:10:41;32.20;86.00
40291;DHT22;26000;48.304;13.626;2022-07-21T11:13:07;31.90;87.50
40291;DHT22;26000;48.304;13.626;2022-07-21T11:15:57;31.80;85.50
40291;DHT22;26000;48.304;13.626;2022-07-21T11:18:28;31.70;85.10
40291;DHT22;26000;48.304;13.626;2022-07-21T11:21:15;31.80;86.10
40291;DHT22;26000;48.304;13.626;2022-07-21T11:23:47;31.80;85.00
40291;DHT22;26000;48.304;13.626;2022-07-21T11:26:19;31.80;87.20
40291;DHT22;26000;48.304;13.626;2022-07-21T11:29:06;31.80;87.90
40291;DHT22;26000;48.304;13.626;2022-07-21T11:31:44;31.90;88.60
40291;DHT22;26000;48.304;13.626;2022-07-21T11:34:11;32.00;90.40
40291;DHT22;26000;48.304;13.626;2022-07-21T11:36:38;32.10;88.20
40291;DHT22;26000;48.304;13.626;2022-07-21T11:39:08;32.20;88.50
40291;DHT22;26000;48.304;13.626;2022-07-21T11:41:35;32.10;89.30
40291;DHT22;26000;48.304;13.626;2022-07-21T11:44:03;32.20;88.70
40291;DHT22;26000;48.304;13.626;2022-07-21T11:46:48;32.30;88.20
40291;DHT22;26000;48.304;13.626;2022-07-21T11:49:13;32.40;88.10
40291;DHT22;26000;48.304;13.626;2022-07-21T11:51:46;32.40;88.00
40291;DHT22;26000;48.304;13.626;2022-07-21T11:54:33;32.30;89.10
40291;DHT22;26000;48.304;13.626;2022-07-21T11:57:02;32.10;90.40
40291;DHT22;26000;48.304;13.626;2022-07-21T11:59:29;32.20;88.70
40291;DHT22;26000;48.304;13.626;2022-07-21T12:02:00;31.90;87.60
40291;DHT22;26000;48.304;13.626;2022-07-21T12:07:37;31.70;87.30
40291;DHT22;26000;48.304;13.626;2022-07-21T12:10:06;31.80;88.30
40291;DHT22;26000;48.304;13.626;2022-07-21T12:15:12;32.00;88.80
40291;DHT22;26000;48.304;13.626;2022-07-21T12:17:55;32.10;89.40
40291;DHT22;26000;48.304;13.626;2022-07-21T12:20:38;32.20;89.40
40291;DHT22;26000;48.304;13.626;2022-07-21T12:23:26;32.10;88.10
40291;DHT22;26000;48.304;13.626;2022-07-21T12:25:52;32.00;87.30
40291;DHT22;26000;48.304;13.626;2022-07-21T12:28:18;31.90;88.60
40291;DHT22;26000;48.304;13.626;2022-07-21T12:30:49;31.90;89.00
40291;DHT22;26000;48.304;13.626;2022-07-21T12:33:20;31.80;87.80
40291;DHT22;26000;48.304;13.626;2022-07-21T12:36:03;31.50;88.30
40291;DHT22;26000;48.304;13.626;2022-07-21T12:38:39;31.30;87.80
40291;DHT22;26000;48.304;13.626;2022-07-21T12:41:07;31.20;88.50
40291;DHT22;26000;48.304;13.626;2022-07-21T12:43:33;31.20;89.70
40291;DHT22;26000;48.304;13.626;2022-07-21T12:46:14;31.20;89.20
40291;DHT22;26000;48.304;13.626;2022-07-21T12:48:41;31.20;89.20
40291;DHT22;26000;48.304;13.626;2022-07-21T12:56:06;31.30;86.70
40291;DHT22;26000;48.304;13.626;2022-07-21T12:58:33;31.20;87.20
40291;DHT22;26000;48.304;13.626;2022-07-21T13:00:59;31.30;87.70
40291;DHT22;26000;48.304;13.626;2022-07-21T13:03:28;31.40;89.10
40291;DHT22;26000;48.304;13.626;2022-07-21T13:05:54;31.20;85.60
40291;DHT22;26000;48.304;13.626;2022-07-21T13:08:19;31.10;89.00
40291;DHT22;26000;48.304;13.626;2022-07-21T13:10:45;31.10;87.30
40291;DHT22;26000;48.304;13.626;2022-07-21T13:13:11;30.90;90.20
40291;DHT22;26000;48.304;13.626;2022-07-21T13:15:36;30.80;87.50
40291;DHT22;26000;48.304;13.626;2022-07-21T13:18:02;30.70;89.40
40291;DHT22;26000;48.304;13.626;2022-07-21T13:20:28;30.80;90.30
40291;DHT22;26000;48.304;13.626;2022-07-21T13:22:54;30.70;89.80
40291;DHT22;26000;48.304;13.626;2022-07-21T13:25:19;30.60;90.00
40291;DHT22;26000;48.304;13.626;2022-07-21T13:27:45;30.60;89.60
40291;DHT22;26000;48.304;13.626;2022-07-21T13:30:11;30.60;89.50
40291;DHT22;26000;48.304;13.626;2022-07-21T13:32:37;30.60;89.90
40291;DHT22;26000;48.304;13.626;2022-07-21T13:35:04;30.40;89.80
40291;DHT22;26000;48.304;13.626;2022-07-21T13:37:30;30.40;89.30
40291;DHT22;26000;48.304;13.626;2022-07-21T13:39:56;30.20;88.30
40291;DHT22;26000;48.304;13.626;2022-07-21T13:42:21;30.10;89.50
40291;DHT22;26000;48.304;13.626;2022-07-21T13:44:47;29.90;90.40
40291;DHT22;26000;48.304;13.626;2022-07-21T13:47:13;29.90;91.00
40291;DHT22;26000;48.304;13.626;2022-07-21T13:49:38;29.90;90.30
40291;DHT22;26000;48.304;13.626;2022-07-21T13:52:04;29.80;90.60
40291;DHT22;26000;48.304;13.626;2022-07-21T13:54:30;29.70;90.70
40291;DHT22;26000;48.304;13.626;2022-07-21T13:56:55;29.70;89.90
40291;DHT22;26000;48.304;13.626;2022-07-21T13:59:22;29.60;90.70
40291;DHT22;26000;48.304;13.626;2022-07-21T14:01:48;29.40;90.50
40291;DHT22;26000;48.304;13.626;2022-07-21T14:04:14;29.40;90.60
40291;DHT22;26000;48.304;13.626;2022-07-21T14:06:39;29.40;90.70
40291;DHT22;26000;48.304;13.626;2022-07-21T14:09:05;29.20;90.40
40291;DHT22;26000;48.304;13.626;2022-07-21T14:11:31;29.20;90.40
40291;DHT22;26000;48.304;13.626;2022-07-21T14:13:57;29.00;91.20
40291;DHT22;26000;48.304;13.626;2022-07-21T14:16:22;29.10;91.10
40291;DHT22;26000;48.304;13.626;2022-07-21T14:18:48;29.10;91.40
40291;DHT22;26000;48.304;13.626;2022-07-21T14:21:14;29.10;91.20
40291;DHT22;26000;48.304;13.626;2022-07-21T14:23:40;29.10;91.30
40291;DHT22;26000;48.304;13.626;2022-07-21T14:26:06;29.10;90.90
40291;DHT22;26000;48.304;13.626;2022-07-21T14:28:32;29.10;90.90
40291;DHT22;26000;48.304;13.626;2022-07-21T14:30:57;29.00;91.20
40291;DHT22;26000;48.304;13.626;2022-07-21T14:33:24;28.80;91.30
40291;DHT22;26000;48.304;13.626;2022-07-21T14:35:49;28.80;91.50
40291;DHT22;26000;48.304;13.626;2022-07-21T14:38:15;28.80;91.50
40291;DHT22;26000;48.304;13.626;2022-07-21T14:40:43;28.70;91.50
40291;DHT22;26000;48.304;13.626;2022-07-21T14:43:08;28.60;91.20
40291;DHT22;26000;48.304;13.626;2022-07-21T14:45:34;28.50;91.40
40291;DHT22;26000;48.304;13.626;2022-07-21T14:48:00;28.40;91.50
40291;DHT22;26000;48.304;13.626;2022-07-21T14:50:27;28.40;91.50
40291;DHT22;26000;48.304;13.626;2022-07-21T14:52:57;28.30;91.10
40291;DHT22;26000;48.304;13.626;2022-07-21T14:55:25;28.10;91.20
40291;DHT22;26000;48.304;13.626;2022-07-21T14:57:51;28.00;92.00
40291;DHT22;26000;48.304;13.626;2022-07-21T15:00:18;28.00;92.00
40291;DHT22;26000;48.304;13.626;2022-07-21T15:02:43;28.00;92.30
40291;DHT22;26000;48.304;13.626;2022-07-21T15:05:09;27.80;91.90
40291;DHT22;26000;48.304;13.626;2022-07-21T15:07:35;27.80;92.70
40291;DHT22;26000;48.304;13.626;2022-07-21T15:10:00;27.70;92.50
40291;DHT22;26000;48.304;13.626;2022-07-21T15:12:26;27.70;92.30
40291;DHT22;26000;48.304;13.626;2022-07-21T15:14:52;27.70;92.60
40291;DHT22;26000;48.304;13.626;2022-07-21T15:17:18;27.70;92.40
40291;DHT22;26000;48.304;13.626;2022-07-21T15:19:44;27.60;92.40
40291;DHT22;26000;48.304;13.626;2022-07-21T15:22:10;27.60;92.50
40291;DHT22;26000;48.304;13.626;2022-07-21T15:24:36;27.60;92.40
40291;DHT22;26000;48.304;13.626;2022-07-21T15:27:01;27.60;92.50
40291;DHT22;26000;48.304;13.626;2022-07-21T15:29:27;27.60;92.80
40291;DHT22;26000;48.304;13.626;2022-07-21T15:31:53;27.60;92.90
40291;DHT22;26000;48.304;13.626;2022-07-21T15:34:18;27.50;92.70
40291;DHT22;26000;48.304;13.626;2022-07-21T15:36:44;27.50;92.90
40291;DHT22;26000;48.304;13.626;2022-07-21T15:39:11;27.40;93.00
40291;DHT22;26000;48.304;13.626;2022-07-21T15:41:37;27.40;92.60
40291;DHT22;26000;48.304;13.626;2022-07-21T15:44:04;27.30;92.30
40291;DHT22;26000;48.304;13.626;2022-07-21T15:46:30;27.30;92.10
40291;DHT22;26000;48.304;13.626;2022-07-21T15:48:56;27.40;92.10
40291;DHT22;26000;48.304;13.626;2022-07-21T15:51:22;27.30;91.70
40291;DHT22;26000;48.304;13.626;2022-07-21T15:53:47;27.20;92.00